createdAt,value
2022-11-28T00:04:43.846Z,64.50
2022-11-28T00:09:45.690Z,66.01
2022-11-28T00:14:47.132Z,65.90
2022-11-28T00:19:48.621Z,65.45
2022-11-28T00:24:50.081Z,65.36
2022-11-28T00:29:51.546Z,64.99
2022-11-28T00:34:53.015Z,65.04
2022-11-28T00:39:54.475Z,65.97
2022-11-28T00:44:55.926Z,66.65
2022-11-28T00:49:57.548Z,66.53
2022-11-28T00:54:59.001Z,66.50
2022-11-28T01:00:00.475Z,66.37
2022-11-28T01:05:01.929Z,67.16
2022-11-28T01:10:03.493Z,66.61
2022-11-28T01:15:06.329Z,65.63
2022-11-28T01:20:08.726Z,66.76
2022-11-28T01:25:10.183Z,66.27
2022-11-28T01:30:12.120Z,66.77
2022-11-28T01:35:13.583Z,65.78
2022-11-28T01:40:15.039Z,65.85
2022-11-28T01:45:26.272Z,66.49
2022-11-28T01:50:28.488Z,65.17
2022-11-28T01:55:31.776Z,64.96
2022-11-28T02:00:34.667Z,64.04
2022-11-28T02:05:36.274Z,63.98
2022-11-28T02:11:01.679Z,64.69
2022-11-28T02:16:17.165Z,65.63
2022-11-28T02:21:24.935Z,63.96
2022-11-28T02:26:40.792Z,63.96
2022-11-28T02:32:08.166Z,64.29
2022-11-28T02:37:15.822Z,64.23
2022-11-28T02:42:51.646Z,63.55
2022-11-28T02:48:08.571Z,63.42
2022-11-28T02:53:13.015Z,64.23
2022-11-28T02:58:14.480Z,63.96
2022-11-28T03:03:21.484Z,63.75
2022-11-28T03:08:37.282Z,64.05
2022-11-28T03:13:40.053Z,63.14
2022-11-28T03:18:52.396Z,62.45
2022-11-28T03:24:01.636Z,63.25
2022-11-28T03:29:06.729Z,63.16
2022-11-28T03:34:09.785Z,62.08
2022-11-28T03:39:13.112Z,62.73
2022-11-28T03:44:18.375Z,63.58
2022-11-28T03:49:26.568Z,62.43
2022-11-28T03:54:32.378Z,63.50
2022-11-28T03:59:52.825Z,62.72
2022-11-28T04:05:19.985Z,64.52
2022-11-28T04:10:31.359Z,65.46
2022-11-28T04:15:40.634Z,67.09
2022-11-28T04:20:43.501Z,67.16
2022-11-28T04:25:48.645Z,67.61
2022-11-28T04:30:50.586Z,68.05
2022-11-28T04:35:52.630Z,67.08
2022-11-28T04:41:00.297Z,66.32
2022-11-28T04:46:05.910Z,66.87
2022-11-28T04:51:27.585Z,64.85
2022-11-28T04:56:31.828Z,66.32
2022-11-28T05:01:33.348Z,65.71
2022-11-28T05:06:35.432Z,66.27
2022-11-28T05:11:36.910Z,67.47
2022-11-28T05:16:38.409Z,67.93
2022-11-28T05:21:39.941Z,68.92
2022-11-28T05:26:41.428Z,66.65
2022-11-28T05:31:42.972Z,67.42
2022-11-28T05:36:44.595Z,66.61
2022-11-28T05:41:46.061Z,67.36
2022-11-28T05:46:47.510Z,67.46
2022-11-28T05:51:49.282Z,66.49
2022-11-28T05:56:51.747Z,69.03
2022-11-28T06:01:53.355Z,68.92
2022-11-28T06:06:54.883Z,69.41
2022-11-28T06:11:56.330Z,68.36
2022-11-28T06:16:57.884Z,69.03
2022-11-28T06:21:59.387Z,68.17
2022-11-28T06:27:00.865Z,68.92
2022-11-28T06:32:02.403Z,68.86
2022-11-28T06:37:03.913Z,68.88
2022-11-28T06:42:05.529Z,69.07
2022-11-28T06:47:06.975Z,68.63
2022-11-28T06:52:08.418Z,68.56
2022-11-28T06:57:09.879Z,68.09
2022-11-28T07:02:11.454Z,67.94
2022-11-28T07:07:16.497Z,68.60
2022-11-28T07:12:18.431Z,68.54
2022-11-28T07:17:19.885Z,69.91
2022-11-28T07:22:22.234Z,69.41
2022-11-28T07:27:23.686Z,68.02
2022-11-28T07:32:25.174Z,68.24
2022-11-28T07:37:26.631Z,68.05
2022-11-28T07:42:28.085Z,69.46
2022-11-28T07:47:29.532Z,69.69
2022-11-28T07:52:30.988Z,69.65
2022-11-28T07:57:32.525Z,69.49
2022-11-28T08:02:34.608Z,70.33
2022-11-28T08:07:36.228Z,69.58
2022-11-28T08:12:37.803Z,69.62
2022-11-28T08:17:39.828Z,70.14
2022-11-28T08:22:41.307Z,69.38
2022-11-28T08:27:42.797Z,69.40
2022-11-28T08:32:44.238Z,69.24
2022-11-28T08:37:45.698Z,69.67
2022-11-28T08:42:47.143Z,69.35
2022-11-28T08:47:48.612Z,69.59
2022-11-28T08:52:50.085Z,69.31
2022-11-28T08:57:51.551Z,68.59
2022-11-28T09:02:53.015Z,68.48
2022-11-28T09:07:54.939Z,67.33
2022-11-28T09:12:56.488Z,69.20
2022-11-28T09:17:58.095Z,67.99
2022-11-28T09:22:59.559Z,69.01
2022-11-28T09:28:01.253Z,69.62
2022-11-28T09:33:02.717Z,68.79
2022-11-28T09:38:04.176Z,67.55
2022-11-28T09:43:28.852Z,67.87
2022-11-28T09:48:35.004Z,68.33
2022-11-28T09:53:43.577Z,68.66
2022-11-28T09:58:59.074Z,68.55
2022-11-28T10:04:07.393Z,68.81
2022-11-28T10:09:31.751Z,68.11
2022-11-28T10:14:57.309Z,67.77
2022-11-28T10:20:12.106Z,67.85
2022-11-28T10:25:22.691Z,67.77
2022-11-28T10:30:25.740Z,68.56
2022-11-28T10:35:44.402Z,67.70
2022-11-28T10:40:50.511Z,67.80
2022-11-28T10:46:16.690Z,68.31
2022-11-28T10:51:51.796Z,67.18
2022-11-28T10:57:17.593Z,67.92
2022-11-28T11:02:38.144Z,68.11
2022-11-28T11:07:39.625Z,67.23
2022-11-28T11:12:41.210Z,66.59
2022-11-28T11:17:42.657Z,66.11
2022-11-28T11:22:46.127Z,65.75
2022-11-28T11:27:49.575Z,66.54
2022-11-28T11:32:51.726Z,67.18
2022-11-28T11:37:53.437Z,66.74
2022-11-28T11:42:56.544Z,66.63
2022-11-28T11:47:58.018Z,66.07
2022-11-28T11:53:12.876Z,66.36
2022-11-28T11:58:15.752Z,68.41
2022-11-28T12:03:45.613Z,67.16
2022-11-28T12:08:54.608Z,66.78
2022-11-28T12:13:57.518Z,66.95
2022-11-28T12:19:19.400Z,66.84
2022-11-28T12:24:28.731Z,66.20
2022-11-28T12:29:35.397Z,66.40
2022-11-28T12:34:53.744Z,66.51
2022-11-28T12:39:58.986Z,67.13
2022-11-28T12:45:27.388Z,66.28
2022-11-28T12:50:43.841Z,66.58
2022-11-28T12:56:16.756Z,65.64
2022-11-28T13:01:39.367Z,65.68
2022-11-28T13:06:51.054Z,65.07
2022-11-28T13:12:10.929Z,66.15
2022-11-28T13:17:40.097Z,65.96
2022-11-28T13:23:09.746Z,65.76
2022-11-28T13:28:22.195Z,65.17
2022-11-28T13:33:35.873Z,65.96
2022-11-28T13:39:11.726Z,66.77
2022-11-28T13:44:40.709Z,67.64
2022-11-28T13:49:42.203Z,66.70
2022-11-28T13:54:45.190Z,66.54
2022-11-28T13:59:48.832Z,66.10
2022-11-28T14:04:50.587Z,66.06
2022-11-28T14:10:24.197Z,66.35
2022-11-28T14:16:08.002Z,67.57
2022-11-28T14:21:47.210Z,67.67
2022-11-28T14:26:48.674Z,67.00
2022-11-28T14:32:06.977Z,66.79
2022-11-28T14:37:20.533Z,66.63
2022-11-28T14:42:58.134Z,67.54
2022-11-28T14:48:06.396Z,66.64
2022-11-28T14:53:34.221Z,67.25
2022-11-28T14:58:35.863Z,67.05
2022-11-28T15:03:41.836Z,67.34
2022-11-28T15:08:51.600Z,67.72
2022-11-28T15:14:04.933Z,67.69
2022-11-28T15:19:15.621Z,67.71
2022-11-28T15:24:37.274Z,67.37
2022-11-28T15:29:38.718Z,68.61
2022-11-28T15:34:40.613Z,66.60
2022-11-28T15:39:42.260Z,66.73
2022-11-28T15:44:43.927Z,66.67
2022-11-28T15:49:45.648Z,67.04
2022-11-28T15:54:51.353Z,66.87
2022-11-28T15:59:52.892Z,67.07
2022-11-28T16:04:59.482Z,67.18
2022-11-28T16:10:05.982Z,67.12
2022-11-28T16:15:07.976Z,66.12
2022-11-28T16:20:20.482Z,66.37
2022-11-28T16:25:23.830Z,65.76
2022-11-28T16:30:25.996Z,66.19
2022-11-28T16:35:37.726Z,66.38
2022-11-28T16:40:39.203Z,66.24
2022-11-28T16:45:40.698Z,65.94
2022-11-28T16:51:10.589Z,66.38
2022-11-28T16:56:30.185Z,67.92
2022-11-28T17:01:31.679Z,67.53
2022-11-28T17:06:36.834Z,67.69
2022-11-28T17:12:00.013Z,67.93
2022-11-28T17:17:01.512Z,67.14
2022-11-28T17:22:02.983Z,66.05
2022-11-28T17:27:07.544Z,66.02
2022-11-28T17:32:13.372Z,67.49
2022-11-28T17:37:14.917Z,67.38
2022-11-28T17:42:16.366Z,67.35
2022-11-28T17:47:17.830Z,67.72
2022-11-28T17:52:20.389Z,67.42
2022-11-28T17:57:21.852Z,67.22
2022-11-28T18:02:23.388Z,67.89
2022-11-28T18:07:24.882Z,67.97
2022-11-28T18:12:26.341Z,67.88
2022-11-28T18:17:27.804Z,67.41
2022-11-28T18:22:29.279Z,67.22
2022-11-28T18:27:30.812Z,66.92
2022-11-28T18:32:32.663Z,67.40
2022-11-28T18:37:34.138Z,66.83
2022-11-28T18:42:36.259Z,66.52
2022-11-28T18:47:37.739Z,67.24
2022-11-28T18:52:39.306Z,67.09
2022-11-28T18:57:41.354Z,67.17
2022-11-28T19:02:42.876Z,67.56
2022-11-28T19:07:44.417Z,66.93
2022-11-28T19:12:45.989Z,66.15
2022-11-28T19:17:47.477Z,67.13
2022-11-28T19:22:48.939Z,66.92
2022-11-28T19:27:50.395Z,66.29
2022-11-28T19:32:51.870Z,65.59
2022-11-28T19:37:53.374Z,65.54
2022-11-28T19:42:54.836Z,66.43
2022-11-28T19:47:56.304Z,65.82
2022-11-28T19:52:57.775Z,65.97
2022-11-28T19:57:59.240Z,65.80
2022-11-28T20:03:00.748Z,65.52
2022-11-28T20:08:02.307Z,65.56
2022-11-28T20:13:03.860Z,65.06
2022-11-28T20:18:05.410Z,66.29
2022-11-28T20:23:06.870Z,65.67
2022-11-28T20:28:08.348Z,66.32
2022-11-28T20:33:09.812Z,66.10
2022-11-28T20:38:11.274Z,67.10
2022-11-28T20:43:12.836Z,66.34
2022-11-28T20:48:14.313Z,66.34
2022-11-28T20:53:15.781Z,66.22
2022-11-28T20:58:17.294Z,66.60
2022-11-28T21:03:18.756Z,66.10
2022-11-28T21:08:20.241Z,65.94
2022-11-28T21:13:21.735Z,65.07
2022-11-28T21:18:23.197Z,65.17
2022-11-28T21:23:24.688Z,65.83
2022-11-28T21:28:26.162Z,65.59
2022-11-28T21:33:27.659Z,65.46
2022-11-28T21:38:29.638Z,65.42
2022-11-28T21:43:31.175Z,65.09
2022-11-28T21:48:33.066Z,65.08
2022-11-28T21:53:34.545Z,65.19
2022-11-28T21:58:36.028Z,64.82
2022-11-28T22:03:37.791Z,64.50
2022-11-28T22:08:39.308Z,64.51
2022-11-28T22:13:42.147Z,64.69
2022-11-28T22:18:43.838Z,64.83
2022-11-28T22:23:46.181Z,64.90
2022-11-28T22:28:53.627Z,64.94
2022-11-28T22:33:55.560Z,65.80
2022-11-28T22:38:58.510Z,66.04
2022-11-28T22:44:01.007Z,65.95
2022-11-28T22:49:02.767Z,65.05
2022-11-28T22:54:04.518Z,65.03
2022-11-28T22:59:06.044Z,64.63
2022-11-28T23:04:07.522Z,63.94
2022-11-28T23:09:09.503Z,64.47
2022-11-28T23:14:12.833Z,63.57
2022-11-28T23:19:15.754Z,63.68
2022-11-28T23:24:19.111Z,63.83
2022-11-28T23:29:20.589Z,63.95
2022-11-28T23:34:22.046Z,63.63
2022-11-28T23:39:23.530Z,64.14
2022-11-28T23:44:25.005Z,63.87
2022-11-28T23:49:26.459Z,63.47
2022-11-28T23:54:27.919Z,64.31
2022-11-28T23:59:29.487Z,63.33
